createdAt,value
2022-12-20T00:02:17.069Z,6.27
2022-12-20T00:04:47.037Z,6.33
2022-12-20T00:07:16.900Z,5.83
2022-12-20T00:09:46.718Z,5.80
2022-12-20T00:12:19.747Z,5.67
2022-12-20T00:14:49.597Z,5.63
2022-12-20T00:17:19.404Z,6.70
2022-12-20T00:19:49.206Z,6.53
2022-12-20T00:22:19.026Z,6.53
2022-12-20T00:24:48.824Z,7.50
2022-12-20T00:27:21.174Z,6.13
2022-12-20T00:29:50.897Z,4.70
2022-12-20T00:32:20.918Z,6.27
2022-12-20T00:34:50.823Z,5.37
2022-12-20T00:37:20.657Z,8.33
2022-12-20T00:39:50.717Z,7.57
2022-12-20T00:42:23.188Z,6.40
2022-12-20T00:44:53.014Z,6.87
2022-12-20T00:47:22.793Z,6.30
2022-12-20T00:49:52.666Z,6.70
2022-12-20T00:52:22.875Z,7.40
2022-12-20T00:54:52.659Z,5.43
2022-12-20T00:57:25.130Z,5.83
2022-12-20T00:59:54.988Z,6.07
2022-12-20T01:02:24.911Z,5.87
2022-12-20T01:04:54.774Z,5.47
2022-12-20T01:07:24.848Z,8.43
2022-12-20T01:09:54.936Z,5.80
2022-12-20T01:12:27.354Z,4.77
2022-12-20T01:14:57.207Z,6.43
2022-12-20T01:17:26.943Z,6.13
2022-12-20T01:19:56.722Z,5.93
2022-12-20T01:22:26.561Z,7.07
2022-12-20T01:24:56.351Z,5.60
2022-12-20T01:27:29.040Z,5.40
2022-12-20T01:29:58.775Z,4.33
2022-12-20T01:32:28.557Z,5.13
2022-12-20T01:34:58.321Z,6.50
2022-12-20T01:37:28.214Z,4.83
2022-12-20T01:39:57.956Z,4.60
2022-12-20T01:42:30.409Z,6.13
2022-12-20T01:45:03.227Z,7.37
2022-12-20T01:47:37.443Z,6.83
2022-12-20T01:50:09.282Z,5.87
2022-12-20T01:52:42.546Z,5.43
2022-12-20T01:55:16.075Z,6.00
2022-12-20T01:57:52.272Z,4.73
2022-12-20T02:00:23.327Z,5.50
2022-12-20T02:02:54.435Z,7.20
2022-12-20T02:05:26.591Z,4.93
2022-12-20T02:07:59.411Z,5.73
2022-12-20T02:10:42.441Z,5.37
2022-12-20T02:13:23.498Z,5.63
2022-12-20T02:15:58.072Z,5.17
2022-12-20T02:18:33.016Z,5.50
2022-12-20T02:21:17.373Z,5.90
2022-12-20T02:24:19.575Z,5.27
2022-12-20T02:27:22.193Z,6.40
2022-12-20T02:30:11.776Z,7.70
2022-12-20T02:32:47.263Z,5.27
2022-12-20T02:35:21.498Z,3.50
2022-12-20T02:37:53.129Z,4.83
2022-12-20T02:40:26.668Z,5.00
2022-12-20T02:43:02.283Z,4.63
2022-12-20T02:45:35.274Z,4.53
2022-12-20T02:48:08.007Z,5.27
2022-12-20T02:50:41.418Z,4.70
2022-12-20T02:53:12.863Z,4.00
2022-12-20T02:55:49.067Z,4.83
2022-12-20T02:58:24.659Z,6.87
2022-12-20T03:01:04.598Z,5.83
2022-12-20T03:03:36.488Z,7.83
2022-12-20T03:06:07.117Z,5.90
2022-12-20T03:08:36.857Z,5.33
2022-12-20T03:11:06.664Z,4.87
2022-12-20T03:13:36.460Z,4.77
2022-12-20T03:16:10.857Z,5.23
2022-12-20T03:18:41.267Z,5.27
2022-12-20T03:21:11.286Z,4.40
2022-12-20T03:23:41.162Z,5.17
2022-12-20T03:26:10.943Z,7.53
2022-12-20T03:28:40.813Z,4.50
2022-12-20T03:31:15.536Z,5.47
2022-12-20T03:33:45.543Z,4.67
2022-12-20T03:36:15.450Z,7.90
2022-12-20T03:38:45.294Z,4.20
2022-12-20T03:41:15.157Z,4.53
2022-12-20T03:43:45.188Z,4.60
2022-12-20T03:46:18.024Z,4.67
2022-12-20T03:48:48.051Z,4.60
2022-12-20T03:51:17.904Z,6.53
2022-12-20T03:53:47.953Z,5.07
2022-12-20T03:56:17.790Z,5.77
2022-12-20T03:58:47.718Z,4.90
2022-12-20T04:01:25.961Z,6.50
2022-12-20T04:03:55.983Z,5.37
2022-12-20T04:06:27.062Z,4.60
2022-12-20T04:08:56.940Z,3.63
2022-12-20T04:11:26.715Z,4.13
2022-12-20T04:13:57.212Z,4.80
2022-12-20T04:16:31.407Z,5.67
2022-12-20T04:19:01.332Z,6.07
2022-12-20T04:21:33.340Z,7.47
2022-12-20T04:24:04.700Z,7.40
2022-12-20T04:26:34.542Z,5.53
2022-12-20T04:29:04.296Z,4.53
2022-12-20T04:31:36.686Z,5.33
2022-12-20T04:34:06.588Z,4.67
2022-12-20T04:36:36.893Z,5.90
2022-12-20T04:39:06.833Z,5.70
2022-12-20T04:41:36.571Z,5.20
2022-12-20T04:44:06.386Z,6.47
2022-12-20T04:46:38.921Z,6.93
2022-12-20T04:49:08.711Z,5.00
2022-12-20T04:51:38.435Z,4.70
2022-12-20T04:54:06.042Z,4.20
2022-12-20T04:56:35.843Z,5.73
2022-12-20T04:59:05.599Z,5.37
2022-12-20T05:01:38.149Z,6.37
2022-12-20T05:04:08.182Z,6.10
2022-12-20T05:06:37.980Z,4.67
2022-12-20T05:09:07.739Z,4.47
2022-12-20T05:11:37.455Z,5.80
2022-12-20T05:14:07.178Z,7.03
2022-12-20T05:16:40.284Z,5.47
2022-12-20T05:19:23.111Z,6.07
2022-12-20T05:22:12.151Z,3.93
2022-12-20T05:24:57.094Z,5.20
2022-12-20T05:27:31.069Z,5.13
2022-12-20T05:30:04.566Z,4.83
2022-12-20T05:32:52.941Z,5.50
2022-12-20T05:35:24.738Z,7.00
2022-12-20T05:37:54.619Z,4.40
2022-12-20T05:40:24.523Z,5.97
2022-12-20T05:42:59.458Z,6.00
2022-12-20T05:45:29.386Z,5.60
2022-12-20T05:48:01.849Z,8.93
2022-12-20T05:50:31.676Z,5.83
2022-12-20T05:53:05.961Z,4.63
2022-12-20T05:55:40.590Z,7.67
2022-12-20T05:58:13.459Z,6.33
2022-12-20T06:00:44.147Z,5.90
2022-12-20T06:03:17.318Z,5.10
2022-12-20T06:05:47.722Z,4.37
2022-12-20T06:08:17.539Z,5.03
2022-12-20T06:10:47.248Z,5.37
2022-12-20T06:13:16.986Z,7.13
2022-12-20T06:15:47.130Z,5.63
2022-12-20T06:18:19.540Z,4.97
2022-12-20T06:20:53.194Z,5.47
2022-12-20T06:23:23.535Z,5.10
2022-12-20T06:25:53.313Z,5.00
2022-12-20T06:28:23.583Z,5.47
2022-12-20T06:30:56.906Z,3.87
2022-12-20T06:33:29.384Z,3.70
2022-12-20T06:35:59.218Z,5.73
2022-12-20T06:38:28.991Z,4.97
2022-12-20T06:40:58.800Z,5.30
2022-12-20T06:43:28.681Z,5.20
2022-12-20T06:45:58.465Z,5.00
2022-12-20T06:48:30.954Z,3.60
2022-12-20T06:51:01.054Z,4.73
2022-12-20T06:53:30.912Z,4.60
2022-12-20T06:56:00.693Z,4.43
2022-12-20T06:58:30.657Z,5.50
2022-12-20T07:01:02.168Z,3.73
2022-12-20T07:03:34.718Z,4.73
2022-12-20T07:06:04.759Z,4.80
2022-12-20T07:08:34.506Z,5.90
2022-12-20T07:11:08.002Z,7.03
2022-12-20T07:13:38.499Z,5.77
2022-12-20T07:16:10.387Z,4.53
2022-12-20T07:18:42.827Z,5.80
2022-12-20T07:21:14.227Z,5.30
2022-12-20T07:23:43.946Z,6.47
2022-12-20T07:26:13.911Z,4.67
2022-12-20T07:28:44.135Z,6.10
2022-12-20T07:31:14.050Z,3.60
2022-12-20T07:33:46.459Z,4.97
2022-12-20T07:36:17.351Z,4.93
2022-12-20T07:38:47.194Z,5.20
2022-12-20T07:41:18.756Z,5.80
2022-12-20T07:43:48.706Z,5.17
2022-12-20T07:46:19.908Z,5.37
2022-12-20T07:48:52.383Z,5.73
2022-12-20T07:51:26.664Z,5.17
2022-12-20T07:54:01.820Z,4.87
2022-12-20T07:56:40.555Z,5.67
2022-12-20T07:59:14.311Z,6.87
2022-12-20T08:01:46.828Z,5.90
2022-12-20T08:04:23.760Z,6.00
2022-12-20T08:06:55.941Z,6.57
2022-12-20T08:09:26.679Z,5.97
2022-12-20T08:11:57.368Z,5.60
2022-12-20T08:14:27.358Z,5.90
2022-12-20T08:16:57.155Z,5.77
2022-12-20T08:19:32.611Z,6.57
2022-12-20T08:22:02.839Z,6.30
2022-12-20T08:24:32.558Z,5.40
2022-12-20T08:27:02.276Z,6.53
2022-12-20T08:29:31.993Z,6.10
2022-12-20T08:32:01.716Z,6.50
2022-12-20T08:34:34.059Z,7.20
2022-12-20T08:37:09.053Z,6.10
2022-12-20T08:39:42.205Z,7.10
2022-12-20T08:42:12.488Z,6.40
2022-12-20T08:44:42.239Z,5.97
2022-12-20T08:47:12.156Z,7.60
2022-12-20T08:49:47.840Z,4.97
2022-12-20T08:52:18.023Z,7.33
2022-12-20T08:54:47.833Z,6.37
2022-12-20T08:57:17.766Z,5.17
2022-12-20T08:59:47.636Z,5.30
2022-12-20T09:02:17.638Z,6.40
2022-12-20T09:04:50.235Z,6.00
2022-12-20T09:07:22.078Z,7.60
2022-12-20T09:09:55.531Z,5.20
2022-12-20T09:12:25.584Z,4.10
2022-12-20T09:14:57.784Z,4.27
2022-12-20T09:17:27.649Z,4.80
2022-12-20T09:20:00.350Z,4.63
2022-12-20T09:22:31.739Z,5.30
2022-12-20T09:25:01.650Z,4.73
2022-12-20T09:27:31.600Z,4.63
2022-12-20T09:30:01.494Z,6.90
2022-12-20T09:32:31.359Z,4.43
2022-12-20T09:35:03.843Z,5.80
2022-12-20T09:37:34.212Z,4.63
2022-12-20T09:40:04.689Z,5.33
2022-12-20T09:42:37.390Z,4.90
2022-12-20T09:45:12.077Z,4.23
2022-12-20T09:47:42.169Z,3.83
2022-12-20T09:50:20.467Z,4.97
2022-12-20T09:53:03.063Z,5.47
2022-12-20T09:55:42.444Z,4.40
2022-12-20T09:58:32.925Z,4.60
2022-12-20T10:01:24.433Z,4.40
2022-12-20T10:03:56.270Z,5.37
2022-12-20T10:06:37.683Z,4.80
2022-12-20T10:09:13.735Z,4.27
2022-12-20T10:12:01.079Z,4.67
2022-12-20T10:14:44.574Z,4.87
2022-12-20T10:17:20.075Z,5.50
2022-12-20T10:20:11.850Z,4.63
2022-12-20T10:22:50.827Z,4.43
2022-12-20T10:25:23.327Z,4.13
2022-12-20T10:27:58.745Z,5.07
2022-12-20T10:30:36.342Z,5.93
2022-12-20T10:33:06.343Z,4.53
2022-12-20T10:35:40.982Z,4.13
2022-12-20T10:38:17.721Z,4.77
2022-12-20T10:43:45.326Z,3.83
2022-12-20T10:46:18.318Z,4.33
2022-12-20T10:48:50.922Z,5.73
2022-12-20T10:51:22.731Z,5.63
2022-12-20T10:54:04.065Z,4.77
2022-12-20T10:56:36.690Z,3.37
2022-12-20T10:59:27.319Z,4.77
2022-12-20T11:01:57.239Z,4.30
2022-12-20T11:04:31.360Z,5.17
2022-12-20T11:07:02.012Z,4.83
2022-12-20T11:09:36.491Z,6.27
2022-12-20T11:12:09.963Z,4.50
2022-12-20T11:14:43.280Z,3.87
2022-12-20T11:17:34.391Z,3.80
2022-12-20T11:20:28.794Z,3.20
2022-12-20T11:23:10.799Z,3.20
2022-12-20T11:25:59.299Z,4.13
2022-12-20T11:28:49.148Z,4.47
2022-12-20T11:31:26.363Z,4.43
2022-12-20T11:34:30.433Z,3.90
2022-12-20T11:37:13.210Z,4.10
2022-12-20T11:39:57.967Z,4.10
2022-12-20T11:42:40.624Z,5.77
2022-12-20T11:45:18.500Z,4.50
2022-12-20T11:48:06.560Z,3.77
2022-12-20T11:51:04.908Z,5.97
2022-12-20T11:53:40.453Z,5.23
2022-12-20T11:56:36.238Z,10.33
2022-12-20T11:59:23.683Z,4.97
2022-12-20T12:02:05.819Z,5.53
2022-12-20T12:04:42.210Z,5.27
2022-12-20T12:07:16.989Z,4.40
2022-12-20T12:09:59.247Z,6.47
2022-12-20T12:12:32.583Z,4.43
2022-12-20T12:15:16.904Z,6.93
2022-12-20T12:17:52.543Z,5.33
2022-12-20T12:20:29.032Z,5.03
2022-12-20T12:23:06.172Z,6.80
2022-12-20T12:25:36.145Z,5.90
2022-12-20T12:28:08.725Z,6.33
2022-12-20T12:30:50.625Z,5.87
2022-12-20T12:33:31.766Z,5.60
2022-12-20T12:36:37.299Z,8.17
2022-12-20T12:39:38.050Z,5.17
2022-12-20T12:42:39.847Z,5.43
2022-12-20T12:45:21.002Z,6.17
2022-12-20T12:47:57.980Z,8.70
2022-12-20T12:50:36.196Z,5.57
2022-12-20T12:53:11.255Z,4.43
2022-12-20T12:55:44.760Z,7.63
2022-12-20T12:58:48.770Z,6.23
2022-12-20T13:01:56.292Z,8.63
2022-12-20T13:04:35.669Z,6.47
2022-12-20T13:07:38.952Z,6.10
2022-12-20T13:10:52.037Z,10.20
2022-12-20T13:13:27.825Z,7.57
2022-12-20T13:19:40.515Z,7.83
2022-12-20T13:22:25.080Z,7.97
2022-12-20T13:25:04.757Z,9.67
2022-12-20T13:27:45.298Z,10.87
2022-12-20T13:30:30.782Z,7.17
2022-12-20T13:33:26.109Z,7.37
2022-12-20T13:36:39.475Z,9.03
2022-12-20T13:39:36.473Z,9.00
2022-12-20T13:42:34.052Z,8.90
2022-12-20T13:45:09.957Z,8.20
2022-12-20T13:47:49.544Z,8.27
2022-12-20T13:50:34.081Z,9.53
2022-12-20T13:53:16.179Z,9.73
2022-12-20T13:55:54.470Z,10.43
2022-12-20T13:58:41.400Z,10.97
2022-12-20T14:01:27.050Z,10.30
2022-12-20T14:04:07.447Z,12.70
2022-12-20T14:06:38.498Z,10.00
2022-12-20T14:09:52.785Z,10.03
2022-12-20T14:12:36.529Z,14.07
2022-12-20T14:15:41.556Z,12.47
2022-12-20T14:18:29.615Z,13.10
2022-12-20T14:21:12.351Z,12.47
2022-12-20T14:23:53.083Z,14.00
2022-12-20T14:26:32.614Z,13.83
2022-12-20T14:29:20.203Z,13.70
2022-12-20T14:32:00.235Z,15.37
2022-12-20T14:34:41.794Z,14.13
2022-12-20T14:37:33.272Z,17.60
2022-12-20T14:40:29.725Z,13.80
2022-12-20T14:43:42.204Z,14.93
2022-12-20T14:46:35.304Z,12.73
2022-12-20T14:49:21.366Z,14.33
2022-12-20T14:51:52.280Z,14.73
2022-12-20T14:55:05.645Z,15.10
2022-12-20T14:57:23.132Z,15.83
2022-12-20T15:00:15.794Z,16.17
2022-12-20T15:02:52.912Z,16.07
2022-12-20T15:05:51.239Z,19.67
2022-12-20T15:08:25.088Z,14.67
2022-12-20T15:11:04.077Z,17.43
2022-12-20T15:13:36.379Z,16.33
2022-12-20T15:16:18.639Z,17.63
2022-12-20T15:18:49.752Z,21.10
2022-12-20T15:21:25.083Z,21.37
2022-12-20T15:24:00.035Z,21.77
2022-12-20T15:26:31.197Z,22.97
2022-12-20T15:29:01.256Z,19.27
2022-12-20T15:31:37.978Z,23.20
2022-12-20T15:34:16.383Z,22.23
2022-12-20T15:36:46.179Z,20.70
2022-12-20T15:39:16.490Z,21.27
2022-12-20T15:41:48.553Z,22.40
2022-12-20T15:44:22.099Z,20.03
2022-12-20T15:46:55.005Z,17.60
2022-12-20T15:49:26.588Z,19.87
2022-12-20T15:51:57.547Z,22.43
2022-12-20T15:54:29.763Z,19.53
2022-12-20T15:57:03.179Z,17.60
2022-12-20T15:59:58.959Z,18.33
2022-12-20T16:02:29.800Z,20.93
2022-12-20T16:05:00.061Z,22.50
2022-12-20T16:07:30.036Z,18.10
2022-12-20T16:10:03.072Z,18.67
2022-12-20T16:12:37.582Z,20.33
2022-12-20T16:15:08.551Z,19.90
2022-12-20T16:17:44.164Z,20.77
2022-12-20T16:20:14.953Z,17.07
2022-12-20T16:22:44.862Z,16.87
2022-12-20T16:25:27.573Z,20.00
2022-12-20T16:27:57.405Z,18.53
2022-12-20T16:30:30.521Z,18.97
2022-12-20T16:33:02.925Z,17.80
2022-12-20T16:35:36.410Z,18.50
2022-12-20T16:38:07.353Z,18.73
2022-12-20T16:40:37.240Z,19.30
2022-12-20T16:43:07.913Z,20.50
2022-12-20T16:45:37.676Z,17.33
2022-12-20T16:48:10.218Z,19.00
2022-12-20T16:50:43.533Z,17.87
2022-12-20T16:53:16.988Z,19.50
2022-12-20T16:55:46.817Z,18.50
2022-12-20T16:58:16.602Z,22.43
2022-12-20T17:00:46.445Z,22.57
2022-12-20T17:03:18.901Z,21.63
2022-12-20T17:05:48.744Z,25.07
2022-12-20T17:11:02.269Z,21.07
2022-12-20T17:13:32.156Z,20.07
2022-12-20T17:16:01.912Z,18.00
2022-12-20T17:18:34.420Z,17.67
2022-12-20T17:21:04.762Z,16.23
2022-12-20T17:23:44.095Z,15.77
2022-12-20T17:26:18.271Z,14.97
2022-12-20T17:28:48.072Z,13.80
2022-12-20T17:31:30.509Z,14.33
2022-12-20T17:34:05.437Z,13.37
2022-12-20T17:36:38.022Z,12.67
2022-12-20T17:39:08.118Z,13.63
2022-12-20T17:41:38.050Z,13.47
2022-12-20T17:44:09.543Z,12.30
2022-12-20T17:46:39.300Z,13.67
2022-12-20T17:49:11.732Z,17.00
2022-12-20T17:51:41.625Z,17.90
2022-12-20T17:54:20.282Z,17.87
2022-12-20T17:56:50.870Z,20.57
2022-12-20T17:59:21.922Z,17.80
2022-12-20T18:01:52.344Z,12.47
2022-12-20T18:04:24.920Z,13.20
2022-12-20T18:06:54.716Z,12.67
2022-12-20T18:09:24.699Z,13.30
2022-12-20T18:11:54.444Z,12.93
2022-12-20T18:14:24.179Z,14.03
2022-12-20T18:16:55.681Z,14.43
2022-12-20T18:19:28.174Z,15.40
2022-12-20T18:21:58.254Z,14.40
2022-12-20T18:24:28.154Z,17.10
2022-12-20T18:26:57.909Z,19.23
2022-12-20T18:29:28.622Z,18.20
2022-12-20T18:31:58.458Z,19.50
2022-12-20T18:34:30.987Z,18.90
2022-12-20T18:37:01.984Z,20.53
2022-12-20T18:39:31.760Z,21.80
2022-12-20T18:42:01.493Z,19.77
2022-12-20T18:44:35.964Z,23.40
2022-12-20T18:47:06.578Z,22.53
2022-12-20T18:49:38.924Z,24.27
2022-12-20T18:52:08.855Z,27.27
2022-12-20T18:54:38.607Z,27.37
2022-12-20T18:57:08.788Z,25.50
2022-12-20T18:59:38.564Z,25.83
2022-12-20T19:02:08.596Z,25.17
2022-12-20T19:04:41.151Z,23.30
2022-12-20T19:07:11.299Z,28.30
2022-12-20T19:09:41.034Z,23.63
2022-12-20T19:12:10.939Z,23.10
2022-12-20T19:14:40.663Z,25.07
2022-12-20T19:17:10.513Z,23.10
2022-12-20T19:19:42.938Z,24.13
2022-12-20T19:22:12.726Z,27.00
2022-12-20T19:24:42.998Z,25.57
2022-12-20T19:27:12.842Z,22.23
2022-12-20T19:29:45.447Z,23.07
2022-12-20T19:32:15.695Z,21.27
2022-12-20T19:34:48.092Z,19.80
2022-12-20T19:37:18.351Z,20.50
2022-12-20T19:39:48.098Z,19.97
2022-12-20T19:42:25.537Z,23.13
2022-12-20T19:44:55.486Z,20.83
2022-12-20T19:47:26.449Z,21.83
2022-12-20T19:49:58.798Z,22.70
2022-12-20T19:52:29.226Z,21.77
2022-12-20T19:54:59.115Z,18.93
2022-12-20T19:57:29.036Z,22.60
2022-12-20T19:59:58.808Z,20.87
2022-12-20T20:02:28.910Z,20.93
2022-12-20T20:05:01.507Z,22.20
2022-12-20T20:07:31.445Z,22.47
2022-12-20T20:10:01.214Z,19.27
2022-12-20T20:12:30.994Z,20.20
2022-12-20T20:15:00.812Z,20.03
2022-12-20T20:17:30.664Z,19.73
2022-12-20T20:20:02.979Z,23.33
2022-12-20T20:22:32.740Z,22.43
2022-12-20T20:25:02.469Z,20.37
2022-12-20T20:27:32.246Z,20.80
2022-12-20T20:30:01.970Z,21.27
2022-12-20T20:32:31.990Z,23.87
2022-12-20T20:35:04.375Z,20.97
2022-12-20T20:37:34.155Z,21.77
2022-12-20T20:40:03.922Z,23.10
2022-12-20T20:42:33.706Z,22.23
2022-12-20T20:45:03.554Z,22.90
2022-12-20T20:47:33.339Z,22.63
2022-12-20T20:50:05.715Z,23.67
2022-12-20T20:52:35.584Z,23.10
2022-12-20T20:55:05.372Z,20.37
2022-12-20T20:57:35.139Z,21.93
2022-12-20T21:00:05.462Z,23.60
2022-12-20T21:02:35.353Z,24.50
2022-12-20T21:05:58.633Z,19.97
2022-12-20T21:07:59.333Z,19.93
2022-12-20T21:10:29.229Z,19.43
2022-12-20T21:12:59.053Z,24.47
2022-12-20T21:15:28.874Z,22.93
2022-12-20T21:17:58.864Z,23.23
2022-12-20T21:20:31.344Z,20.87
2022-12-20T21:23:01.632Z,19.73
2022-12-20T21:25:32.041Z,16.87
2022-12-20T21:28:02.115Z,20.37
2022-12-20T21:30:32.064Z,19.20
2022-12-20T21:33:01.772Z,19.87
2022-12-20T21:35:34.254Z,19.23
2022-12-20T21:38:04.165Z,18.73
2022-12-20T21:40:33.939Z,19.13
2022-12-20T21:43:03.887Z,20.67
2022-12-20T21:45:36.496Z,19.53
2022-12-20T21:48:06.274Z,22.20
2022-12-20T21:50:38.596Z,17.20
2022-12-20T21:53:09.942Z,18.40
2022-12-20T21:55:42.529Z,33.27
2022-12-20T21:58:12.244Z,23.43
2022-12-20T22:00:42.220Z,24.07
2022-12-20T22:03:12.101Z,20.40
2022-12-20T22:05:48.946Z,20.63
2022-12-20T22:08:19.076Z,23.57
2022-12-20T22:10:50.057Z,19.77
2022-12-20T22:13:19.836Z,21.37
2022-12-20T22:15:49.596Z,23.27
2022-12-20T22:18:19.416Z,20.63
2022-12-20T22:20:51.755Z,23.53
2022-12-20T22:23:21.503Z,20.00
2022-12-20T22:25:51.226Z,19.77
2022-12-20T22:28:20.946Z,20.30
2022-12-20T22:30:52.368Z,24.43
2022-12-20T22:33:22.112Z,26.70
2022-12-20T22:35:54.495Z,21.43
2022-12-20T22:38:24.265Z,20.30
2022-12-20T22:40:58.899Z,20.37
2022-12-20T22:43:28.843Z,18.77
2022-12-20T22:46:00.180Z,19.47
2022-12-20T22:48:30.079Z,17.93
2022-12-20T22:51:07.344Z,20.33
2022-12-20T22:53:38.305Z,20.60
2022-12-20T22:56:09.355Z,18.17
2022-12-20T22:58:41.411Z,18.07
2022-12-20T23:01:14.503Z,18.03
2022-12-20T23:03:44.991Z,18.40
2022-12-20T23:06:20.189Z,18.50
2022-12-20T23:08:50.843Z,16.23
2022-12-20T23:11:36.076Z,18.73
2022-12-20T23:14:19.776Z,15.67
2022-12-20T23:16:49.677Z,17.87
2022-12-20T23:19:19.545Z,15.50
2022-12-20T23:22:04.344Z,15.10
2022-12-20T23:24:34.149Z,16.07
2022-12-20T23:27:03.923Z,14.63
2022-12-20T23:29:33.784Z,15.73
2022-12-20T23:32:03.630Z,17.27
2022-12-20T23:34:33.561Z,15.47
2022-12-20T23:37:05.870Z,14.50
2022-12-20T23:39:35.949Z,14.10
2022-12-20T23:42:05.745Z,18.60
2022-12-20T23:44:35.558Z,15.60
2022-12-20T23:47:05.320Z,15.63
2022-12-20T23:49:35.055Z,16.13
2022-12-20T23:52:07.739Z,13.63
2022-12-20T23:54:37.488Z,14.50
2022-12-20T23:57:07.286Z,13.27
2022-12-20T23:59:36.990Z,13.20
